sensor_id;sensor_type;location;lat;lon;timestamp;P1;durP1;ratioP1;P2;durP2;ratioP2
5821;SDS011;2937;48.562;8.022;2023-06-10T00:04:12;11.43;;;10.23;;
5821;SDS011;2937;48.562;8.022;2023-06-10T00:09:05;12.27;;;10.83;;
5821;SDS011;2937;48.562;8.022;2023-06-10T00:14:01;12.27;;;9.87;;
5821;SDS011;2937;48.562;8.022;2023-06-10T00:18:55;11.70;;;10.50;;
5821;SDS011;2937;48.562;8.022;2023-06-10T00:23:52;12.70;;;10.53;;
5821;SDS011;2937;48.562;8.022;2023-06-10T00:28:46;23.97;;;10.50;;
5821;SDS011;2937;48.562;8.022;2023-06-10T00:33:39;12.40;;;10.87;;
5821;SDS011;2937;48.562;8.022;2023-06-10T00:38:33;15.53;;;11.17;;
5821;SDS011;2937;48.562;8.022;2023-06-10T00:43:26;11.93;;;10.63;;
5821;SDS011;2937;48.562;8.022;2023-06-10T00:48:19;13.60;;;11.07;;
5821;SDS011;2937;48.562;8.022;2023-06-10T00:53:12;13.00;;;11.60;;
5821;SDS011;2937;48.562;8.022;2023-06-10T00:58:06;13.10;;;11.70;;
5821;SDS011;2937;48.562;8.022;2023-06-10T01:02:59;13.07;;;11.77;;
5821;SDS011;2937;48.562;8.022;2023-06-10T01:07:54;13.33;;;11.63;;
5821;SDS011;2937;48.562;8.022;2023-06-10T01:12:49;13.03;;;10.90;;
5821;SDS011;2937;48.562;8.022;2023-06-10T01:17:56;12.90;;;11.30;;
5821;SDS011;2937;48.562;8.022;2023-06-10T01:22:51;13.00;;;11.70;;
5821;SDS011;2937;48.562;8.022;2023-06-10T01:27:45;12.13;;;10.67;;
5821;SDS011;2937;48.562;8.022;2023-06-10T01:32:40;12.43;;;11.10;;
5821;SDS011;2937;48.562;8.022;2023-06-10T01:37:34;14.00;;;11.60;;
5821;SDS011;2937;48.562;8.022;2023-06-10T01:42:29;13.23;;;11.93;;
5821;SDS011;2937;48.562;8.022;2023-06-10T01:47:21;12.70;;;11.40;;
5821;SDS011;2937;48.562;8.022;2023-06-10T01:52:14;15.80;;;12.00;;
5821;SDS011;2937;48.562;8.022;2023-06-10T01:57:07;12.30;;;11.00;;
5821;SDS011;2937;48.562;8.022;2023-06-10T02:02:01;13.63;;;11.70;;
5821;SDS011;2937;48.562;8.022;2023-06-10T02:06:55;15.50;;;11.50;;
5821;SDS011;2937;48.562;8.022;2023-06-10T02:11:49;13.27;;;11.57;;
5821;SDS011;2937;48.562;8.022;2023-06-10T02:16:42;13.53;;;12.13;;
5821;SDS011;2937;48.562;8.022;2023-06-10T02:21:39;14.73;;;12.30;;
5821;SDS011;2937;48.562;8.022;2023-06-10T02:26:36;13.90;;;12.47;;
5821;SDS011;2937;48.562;8.022;2023-06-10T02:31:29;15.00;;;13.00;;
5821;SDS011;2937;48.562;8.022;2023-06-10T02:36:23;13.80;;;12.40;;
5821;SDS011;2937;48.562;8.022;2023-06-10T02:41:20;14.10;;;12.60;;
5821;SDS011;2937;48.562;8.022;2023-06-10T02:46:16;15.43;;;12.70;;
5821;SDS011;2937;48.562;8.022;2023-06-10T02:51:09;17.20;;;13.90;;
5821;SDS011;2937;48.562;8.022;2023-06-10T02:56:06;15.53;;;13.60;;
5821;SDS011;2937;48.562;8.022;2023-06-10T03:01:01;16.27;;;14.63;;
5821;SDS011;2937;48.562;8.022;2023-06-10T03:06:02;16.23;;;14.53;;
5821;SDS011;2937;48.562;8.022;2023-06-10T03:10:56;20.40;;;14.13;;
5821;SDS011;2937;48.562;8.022;2023-06-10T03:15:49;16.10;;;13.30;;
5821;SDS011;2937;48.562;8.022;2023-06-10T03:20:46;16.60;;;14.17;;
5821;SDS011;2937;48.562;8.022;2023-06-10T03:25:40;16.77;;;14.40;;
5821;SDS011;2937;48.562;8.022;2023-06-10T03:30:38;17.67;;;15.47;;
5821;SDS011;2937;48.562;8.022;2023-06-10T03:35:32;19.73;;;16.03;;
5821;SDS011;2937;48.562;8.022;2023-06-10T03:40:29;17.80;;;15.27;;
5821;SDS011;2937;48.562;8.022;2023-06-10T03:45:23;16.90;;;15.00;;
5821;SDS011;2937;48.562;8.022;2023-06-10T03:50:17;18.47;;;14.93;;
5821;SDS011;2937;48.562;8.022;2023-06-10T03:55:11;17.23;;;15.00;;
5821;SDS011;2937;48.562;8.022;2023-06-10T04:00:10;17.80;;;14.20;;
5821;SDS011;2937;48.562;8.022;2023-06-10T04:05:06;16.50;;;14.70;;
5821;SDS011;2937;48.562;8.022;2023-06-10T04:10:00;18.53;;;14.73;;
5821;SDS011;2937;48.562;8.022;2023-06-10T04:14:52;15.63;;;13.90;;
5821;SDS011;2937;48.562;8.022;2023-06-10T04:19:47;17.00;;;14.90;;
5821;SDS011;2937;48.562;8.022;2023-06-10T04:24:40;23.70;;;16.40;;
5821;SDS011;2937;48.562;8.022;2023-06-10T04:29:34;15.33;;;13.73;;
5821;SDS011;2937;48.562;8.022;2023-06-10T04:34:27;17.03;;;14.30;;
5821;SDS011;2937;48.562;8.022;2023-06-10T04:39:21;17.80;;;15.13;;
5821;SDS011;2937;48.562;8.022;2023-06-10T04:44:14;21.50;;;16.60;;
5821;SDS011;2937;48.562;8.022;2023-06-10T04:49:07;24.03;;;18.50;;
5821;SDS011;2937;48.562;8.022;2023-06-10T04:54:00;17.43;;;14.13;;
5821;SDS011;2937;48.562;8.022;2023-06-10T04:58:56;16.30;;;14.53;;
5821;SDS011;2937;48.562;8.022;2023-06-10T05:03:49;15.97;;;14.27;;
5821;SDS011;2937;48.562;8.022;2023-06-10T05:08:42;15.63;;;13.93;;
5821;SDS011;2937;48.562;8.022;2023-06-10T05:13:35;16.17;;;14.47;;
5821;SDS011;2937;48.562;8.022;2023-06-10T05:18:29;16.80;;;14.47;;
5821;SDS011;2937;48.562;8.022;2023-06-10T05:23:22;15.87;;;14.27;;
5821;SDS011;2937;48.562;8.022;2023-06-10T05:28:15;16.77;;;15.07;;
5821;SDS011;2937;48.562;8.022;2023-06-10T05:33:07;18.57;;;15.90;;
5821;SDS011;2937;48.562;8.022;2023-06-10T05:38:02;18.57;;;15.97;;
5821;SDS011;2937;48.562;8.022;2023-06-10T05:42:55;18.00;;;14.97;;
5821;SDS011;2937;48.562;8.022;2023-06-10T05:47:47;17.20;;;14.73;;
5821;SDS011;2937;48.562;8.022;2023-06-10T05:52:40;17.03;;;15.30;;
5821;SDS011;2937;48.562;8.022;2023-06-10T05:57:34;17.93;;;16.03;;
5821;SDS011;2937;48.562;8.022;2023-06-10T06:02:27;18.90;;;17.00;;
5821;SDS011;2937;48.562;8.022;2023-06-10T06:07:20;18.23;;;16.07;;
5821;SDS011;2937;48.562;8.022;2023-06-10T06:12:13;19.33;;;15.23;;
5821;SDS011;2937;48.562;8.022;2023-06-10T06:17:07;21.40;;;15.40;;
5821;SDS011;2937;48.562;8.022;2023-06-10T06:21:59;16.30;;;14.70;;
5821;SDS011;2937;48.562;8.022;2023-06-10T06:26:52;16.30;;;14.80;;
5821;SDS011;2937;48.562;8.022;2023-06-10T06:31:45;18.73;;;15.70;;
5821;SDS011;2937;48.562;8.022;2023-06-10T06:36:39;15.70;;;14.13;;
5821;SDS011;2937;48.562;8.022;2023-06-10T06:41:32;16.23;;;14.63;;
5821;SDS011;2937;48.562;8.022;2023-06-10T06:46:24;18.07;;;16.00;;
5821;SDS011;2937;48.562;8.022;2023-06-10T06:51:17;15.83;;;14.23;;
5821;SDS011;2937;48.562;8.022;2023-06-10T06:56:11;17.30;;;15.53;;
5821;SDS011;2937;48.562;8.022;2023-06-10T07:01:04;17.07;;;14.70;;
5821;SDS011;2937;48.562;8.022;2023-06-10T07:05:57;17.07;;;14.23;;
5821;SDS011;2937;48.562;8.022;2023-06-10T07:10:50;19.07;;;14.53;;
5821;SDS011;2937;48.562;8.022;2023-06-10T07:15:44;15.17;;;13.77;;
5821;SDS011;2937;48.562;8.022;2023-06-10T07:20:36;17.50;;;14.27;;
5821;SDS011;2937;48.562;8.022;2023-06-10T07:25:29;15.60;;;14.00;;
5821;SDS011;2937;48.562;8.022;2023-06-10T07:30:22;15.17;;;13.70;;
5821;SDS011;2937;48.562;8.022;2023-06-10T07:35:16;22.10;;;13.43;;
5821;SDS011;2937;48.562;8.022;2023-06-10T07:40:09;17.03;;;13.00;;
5821;SDS011;2937;48.562;8.022;2023-06-10T07:45:01;20.17;;;14.00;;
5821;SDS011;2937;48.562;8.022;2023-06-10T07:49:54;17.83;;;13.67;;
5821;SDS011;2937;48.562;8.022;2023-06-10T07:54:48;14.70;;;13.40;;
5821;SDS011;2937;48.562;8.022;2023-06-10T07:59:41;14.83;;;13.40;;
5821;SDS011;2937;48.562;8.022;2023-06-10T08:04:35;14.27;;;12.90;;
5821;SDS011;2937;48.562;8.022;2023-06-10T08:09:28;17.13;;;13.43;;
5821;SDS011;2937;48.562;8.022;2023-06-10T08:14:22;14.60;;;13.20;;
5821;SDS011;2937;48.562;8.022;2023-06-10T08:19:15;17.13;;;13.10;;
5821;SDS011;2937;48.562;8.022;2023-06-10T08:24:08;15.40;;;12.40;;
5821;SDS011;2937;48.562;8.022;2023-06-10T08:29:01;13.70;;;12.30;;
5821;SDS011;2937;48.562;8.022;2023-06-10T08:33:55;13.87;;;12.30;;
5821;SDS011;2937;48.562;8.022;2023-06-10T08:38:48;12.87;;;11.43;;
5821;SDS011;2937;48.562;8.022;2023-06-10T08:43:42;18.83;;;12.00;;
5821;SDS011;2937;48.562;8.022;2023-06-10T08:48:37;12.30;;;11.00;;
5821;SDS011;2937;48.562;8.022;2023-06-10T08:53:34;13.13;;;11.93;;
5821;SDS011;2937;48.562;8.022;2023-06-10T08:58:28;14.43;;;11.60;;
5821;SDS011;2937;48.562;8.022;2023-06-10T09:03:22;13.33;;;11.93;;
5821;SDS011;2937;48.562;8.022;2023-06-10T09:08:16;13.63;;;12.27;;
5821;SDS011;2937;48.562;8.022;2023-06-10T09:13:11;13.80;;;11.57;;
5821;SDS011;2937;48.562;8.022;2023-06-10T09:18:07;12.60;;;10.43;;
5821;SDS011;2937;48.562;8.022;2023-06-10T09:23:00;12.57;;;8.93;;
5821;SDS011;2937;48.562;8.022;2023-06-10T09:27:53;9.90;;;9.00;;
5821;SDS011;2937;48.562;8.022;2023-06-10T09:32:48;11.53;;;8.30;;
5821;SDS011;2937;48.562;8.022;2023-06-10T09:37:40;13.33;;;9.40;;
5821;SDS011;2937;48.562;8.022;2023-06-10T09:42:33;13.60;;;8.73;;
5821;SDS011;2937;48.562;8.022;2023-06-10T09:47:27;9.00;;;8.23;;
5821;SDS011;2937;48.562;8.022;2023-06-10T09:52:22;7.90;;;7.30;;
5821;SDS011;2937;48.562;8.022;2023-06-10T09:57:16;8.40;;;7.60;;
5821;SDS011;2937;48.562;8.022;2023-06-10T10:02:13;7.67;;;6.97;;
5821;SDS011;2937;48.562;8.022;2023-06-10T10:07:05;8.73;;;7.80;;
5821;SDS011;2937;48.562;8.022;2023-06-10T10:12:00;7.60;;;6.73;;
5821;SDS011;2937;48.562;8.022;2023-06-10T10:16:53;7.73;;;6.90;;
5821;SDS011;2937;48.562;8.022;2023-06-10T10:21:52;8.43;;;7.63;;
5821;SDS011;2937;48.562;8.022;2023-06-10T10:26:46;7.87;;;7.17;;
5821;SDS011;2937;48.562;8.022;2023-06-10T10:31:41;8.17;;;7.40;;
5821;SDS011;2937;48.562;8.022;2023-06-10T10:36:35;7.37;;;6.33;;
5821;SDS011;2937;48.562;8.022;2023-06-10T10:41:28;7.30;;;6.70;;
5821;SDS011;2937;48.562;8.022;2023-06-10T10:46:22;8.03;;;7.23;;
5821;SDS011;2937;48.562;8.022;2023-06-10T10:51:16;6.47;;;5.87;;
5821;SDS011;2937;48.562;8.022;2023-06-10T10:56:12;7.67;;;6.60;;
5821;SDS011;2937;48.562;8.022;2023-06-10T11:01:11;8.23;;;7.47;;
5821;SDS011;2937;48.562;8.022;2023-06-10T11:06:04;7.40;;;6.70;;
5821;SDS011;2937;48.562;8.022;2023-06-10T11:11:18;6.00;;;5.50;;
5821;SDS011;2937;48.562;8.022;2023-06-10T11:16:14;6.40;;;5.50;;
5821;SDS011;2937;48.562;8.022;2023-06-10T11:21:12;6.43;;;5.77;;
5821;SDS011;2937;48.562;8.022;2023-06-10T11:26:11;6.10;;;5.50;;
5821;SDS011;2937;48.562;8.022;2023-06-10T11:31:05;6.03;;;5.37;;
5821;SDS011;2937;48.562;8.022;2023-06-10T11:35:58;5.50;;;5.00;;
5821;SDS011;2937;48.562;8.022;2023-06-10T11:40:51;5.93;;;5.33;;
5821;SDS011;2937;48.562;8.022;2023-06-10T11:45:44;5.40;;;4.93;;
5821;SDS011;2937;48.562;8.022;2023-06-10T11:50:38;5.73;;;5.23;;
5821;SDS011;2937;48.562;8.022;2023-06-10T11:55:42;5.80;;;5.30;;
5821;SDS011;2937;48.562;8.022;2023-06-10T12:00:35;5.47;;;4.97;;
5821;SDS011;2937;48.562;8.022;2023-06-10T12:05:35;5.37;;;4.97;;
5821;SDS011;2937;48.562;8.022;2023-06-10T12:10:30;4.80;;;4.40;;
5821;SDS011;2937;48.562;8.022;2023-06-10T12:15:23;5.43;;;4.93;;
5821;SDS011;2937;48.562;8.022;2023-06-10T12:20:24;5.33;;;4.60;;
5821;SDS011;2937;48.562;8.022;2023-06-10T12:25:17;6.40;;;4.50;;
5821;SDS011;2937;48.562;8.022;2023-06-10T12:30:19;7.80;;;5.57;;
5821;SDS011;2937;48.562;8.022;2023-06-10T12:35:16;7.17;;;6.47;;
5821;SDS011;2937;48.562;8.022;2023-06-10T12:40:10;7.67;;;6.97;;
5821;SDS011;2937;48.562;8.022;2023-06-10T12:45:03;6.60;;;6.00;;
5821;SDS011;2937;48.562;8.022;2023-06-10T12:50:00;6.10;;;5.23;;
5821;SDS011;2937;48.562;8.022;2023-06-10T12:54:53;6.00;;;5.43;;
5821;SDS011;2937;48.562;8.022;2023-06-10T12:59:46;6.57;;;5.97;;
5821;SDS011;2937;48.562;8.022;2023-06-10T13:04:43;5.80;;;5.30;;
5821;SDS011;2937;48.562;8.022;2023-06-10T13:09:37;7.07;;;6.47;;
5821;SDS011;2937;48.562;8.022;2023-06-10T13:14:31;9.00;;;6.50;;
5821;SDS011;2937;48.562;8.022;2023-06-10T13:19:23;7.23;;;6.63;;
5821;SDS011;2937;48.562;8.022;2023-06-10T13:24:16;6.80;;;6.10;;
5821;SDS011;2937;48.562;8.022;2023-06-10T13:29:10;5.60;;;5.10;;
5821;SDS011;2937;48.562;8.022;2023-06-10T13:34:05;9.03;;;6.17;;
5821;SDS011;2937;48.562;8.022;2023-06-10T13:38:58;7.43;;;6.57;;
5821;SDS011;2937;48.562;8.022;2023-06-10T13:43:51;8.03;;;7.23;;
5821;SDS011;2937;48.562;8.022;2023-06-10T13:48:45;6.83;;;6.23;;
5821;SDS011;2937;48.562;8.022;2023-06-10T13:53:38;6.20;;;5.70;;
5821;SDS011;2937;48.562;8.022;2023-06-10T13:58:31;5.30;;;4.90;;
5821;SDS011;2937;48.562;8.022;2023-06-10T14:03:23;7.30;;;6.20;;
5821;SDS011;2937;48.562;8.022;2023-06-10T14:08:18;5.80;;;5.20;;
5821;SDS011;2937;48.562;8.022;2023-06-10T14:13:11;5.80;;;5.23;;
5821;SDS011;2937;48.562;8.022;2023-06-10T14:18:04;6.23;;;5.63;;
5821;SDS011;2937;48.562;8.022;2023-06-10T14:22:57;7.17;;;5.80;;
5821;SDS011;2937;48.562;8.022;2023-06-10T14:27:52;8.13;;;5.80;;
5821;SDS011;2937;48.562;8.022;2023-06-10T14:32:44;6.23;;;5.73;;
5821;SDS011;2937;48.562;8.022;2023-06-10T14:37:37;7.30;;;6.00;;
5821;SDS011;2937;48.562;8.022;2023-06-10T14:42:30;8.60;;;6.70;;
5821;SDS011;2937;48.562;8.022;2023-06-10T14:47:25;8.10;;;7.23;;
5821;SDS011;2937;48.562;8.022;2023-06-10T14:52:18;7.80;;;7.00;;
5821;SDS011;2937;48.562;8.022;2023-06-10T14:57:11;7.30;;;6.60;;
5821;SDS011;2937;48.562;8.022;2023-06-10T15:02:04;8.50;;;6.63;;
5821;SDS011;2937;48.562;8.022;2023-06-10T15:06:58;6.80;;;6.17;;
5821;SDS011;2937;48.562;8.022;2023-06-10T15:11:51;6.73;;;6.13;;
5821;SDS011;2937;48.562;8.022;2023-06-10T15:16:43;7.40;;;6.73;;
5821;SDS011;2937;48.562;8.022;2023-06-10T15:21:36;7.67;;;6.97;;
5821;SDS011;2937;48.562;8.022;2023-06-10T15:26:30;7.23;;;6.60;;
5821;SDS011;2937;48.562;8.022;2023-06-10T15:31:23;7.47;;;6.77;;
5821;SDS011;2937;48.562;8.022;2023-06-10T15:36:16;7.83;;;7.13;;
5821;SDS011;2937;48.562;8.022;2023-06-10T15:41:08;7.77;;;7.07;;
5821;SDS011;2937;48.562;8.022;2023-06-10T15:46:02;10.33;;;7.20;;
5821;SDS011;2937;48.562;8.022;2023-06-10T15:50:56;7.13;;;6.53;;
5821;SDS011;2937;48.562;8.022;2023-06-10T15:55:48;7.10;;;6.50;;
5821;SDS011;2937;48.562;8.022;2023-06-10T16:00:41;7.70;;;6.90;;
5821;SDS011;2937;48.562;8.022;2023-06-10T16:05:35;11.10;;;6.57;;
5821;SDS011;2937;48.562;8.022;2023-06-10T16:10:28;8.27;;;6.40;;
5821;SDS011;2937;48.562;8.022;2023-06-10T16:15:20;7.60;;;6.87;;
5821;SDS011;2937;48.562;8.022;2023-06-10T16:20:13;7.60;;;6.90;;
5821;SDS011;2937;48.562;8.022;2023-06-10T16:25:07;7.63;;;6.77;;
5821;SDS011;2937;48.562;8.022;2023-06-10T16:30:01;7.10;;;6.50;;
5821;SDS011;2937;48.562;8.022;2023-06-10T16:34:54;7.30;;;6.60;;
5821;SDS011;2937;48.562;8.022;2023-06-10T16:39:47;6.93;;;6.33;;
5821;SDS011;2937;48.562;8.022;2023-06-10T16:44:41;7.20;;;6.50;;
5821;SDS011;2937;48.562;8.022;2023-06-10T16:49:34;8.67;;;6.87;;
5821;SDS011;2937;48.562;8.022;2023-06-10T16:54:27;7.80;;;6.80;;
5821;SDS011;2937;48.562;8.022;2023-06-10T16:59:20;11.80;;;7.13;;
5821;SDS011;2937;48.562;8.022;2023-06-10T17:04:14;7.80;;;7.00;;
5821;SDS011;2937;48.562;8.022;2023-06-10T17:09:07;7.60;;;6.90;;
5821;SDS011;2937;48.562;8.022;2023-06-10T17:14:00;7.43;;;6.83;;
5821;SDS011;2937;48.562;8.022;2023-06-10T17:18:52;7.90;;;7.20;;
5821;SDS011;2937;48.562;8.022;2023-06-10T17:23:46;7.93;;;7.13;;
5821;SDS011;2937;48.562;8.022;2023-06-10T17:28:39;7.73;;;7.03;;
5821;SDS011;2937;48.562;8.022;2023-06-10T17:33:32;7.27;;;6.67;;
5821;SDS011;2937;48.562;8.022;2023-06-10T17:38:24;8.53;;;6.07;;
5821;SDS011;2937;48.562;8.022;2023-06-10T17:43:18;7.70;;;5.70;;
5821;SDS011;2937;48.562;8.022;2023-06-10T17:48:12;6.63;;;5.83;;
5821;SDS011;2937;48.562;8.022;2023-06-10T17:53:04;7.50;;;6.80;;
5821;SDS011;2937;48.562;8.022;2023-06-10T17:57:57;7.73;;;6.73;;
5821;SDS011;2937;48.562;8.022;2023-06-10T18:02:51;7.47;;;6.63;;
5821;SDS011;2937;48.562;8.022;2023-06-10T18:07:44;7.23;;;6.53;;
5821;SDS011;2937;48.562;8.022;2023-06-10T18:12:37;7.00;;;6.40;;
5821;SDS011;2937;48.562;8.022;2023-06-10T18:17:30;12.50;;;6.43;;
5821;SDS011;2937;48.562;8.022;2023-06-10T18:22:25;8.20;;;6.87;;
5821;SDS011;2937;48.562;8.022;2023-06-10T18:27:18;7.33;;;6.63;;
5821;SDS011;2937;48.562;8.022;2023-06-10T18:32:11;7.77;;;7.00;;
5821;SDS011;2937;48.562;8.022;2023-06-10T18:37:05;6.83;;;6.23;;
5821;SDS011;2937;48.562;8.022;2023-06-10T18:41:59;6.80;;;6.10;;
5821;SDS011;2937;48.562;8.022;2023-06-10T18:46:53;7.07;;;6.47;;
5821;SDS011;2937;48.562;8.022;2023-06-10T18:51:46;8.80;;;6.20;;
5821;SDS011;2937;48.562;8.022;2023-06-10T18:56:38;8.67;;;6.50;;
5821;SDS011;2937;48.562;8.022;2023-06-10T19:01:33;8.07;;;6.37;;
5821;SDS011;2937;48.562;8.022;2023-06-10T19:06:26;7.20;;;6.30;;
5821;SDS011;2937;48.562;8.022;2023-06-10T19:11:19;7.17;;;6.47;;
5821;SDS011;2937;48.562;8.022;2023-06-10T19:16:13;7.13;;;6.47;;
5821;SDS011;2937;48.562;8.022;2023-06-10T19:21:07;7.37;;;6.50;;
5821;SDS011;2937;48.562;8.022;2023-06-10T19:26:00;7.30;;;6.60;;
5821;SDS011;2937;48.562;8.022;2023-06-10T19:30:54;13.07;;;6.90;;
5821;SDS011;2937;48.562;8.022;2023-06-10T19:35:47;8.47;;;6.73;;
5821;SDS011;2937;48.562;8.022;2023-06-10T19:40:41;11.83;;;6.67;;
5821;SDS011;2937;48.562;8.022;2023-06-10T19:45:34;7.60;;;6.80;;
5821;SDS011;2937;48.562;8.022;2023-06-10T19:50:26;7.70;;;6.43;;
5821;SDS011;2937;48.562;8.022;2023-06-10T19:55:19;7.07;;;6.33;;
5821;SDS011;2937;48.562;8.022;2023-06-10T20:00:13;12.63;;;7.40;;
5821;SDS011;2937;48.562;8.022;2023-06-10T20:05:07;9.93;;;7.20;;
5821;SDS011;2937;48.562;8.022;2023-06-10T20:10:01;8.53;;;7.27;;
5821;SDS011;2937;48.562;8.022;2023-06-10T20:14:54;9.90;;;7.27;;
5821;SDS011;2937;48.562;8.022;2023-06-10T20:19:48;8.20;;;7.40;;
5821;SDS011;2937;48.562;8.022;2023-06-10T20:24:44;10.60;;;7.53;;
5821;SDS011;2937;48.562;8.022;2023-06-10T20:29:36;9.43;;;8.03;;
5821;SDS011;2937;48.562;8.022;2023-06-10T20:34:29;10.90;;;8.77;;
5821;SDS011;2937;48.562;8.022;2023-06-10T20:39:24;11.37;;;10.27;;
5821;SDS011;2937;48.562;8.022;2023-06-10T20:44:16;17.97;;;10.43;;
5821;SDS011;2937;48.562;8.022;2023-06-10T20:49:09;11.73;;;9.70;;
5821;SDS011;2937;48.562;8.022;2023-06-10T20:54:05;11.00;;;8.50;;
5821;SDS011;2937;48.562;8.022;2023-06-10T20:58:59;13.50;;;8.90;;
5821;SDS011;2937;48.562;8.022;2023-06-10T21:03:52;9.50;;;8.50;;
5821;SDS011;2937;48.562;8.022;2023-06-10T21:08:44;9.37;;;8.47;;
5821;SDS011;2937;48.562;8.022;2023-06-10T21:13:37;9.53;;;8.60;;
5821;SDS011;2937;48.562;8.022;2023-06-10T21:18:31;8.77;;;7.87;;
5821;SDS011;2937;48.562;8.022;2023-06-10T21:23:24;9.80;;;8.80;;
5821;SDS011;2937;48.562;8.022;2023-06-10T21:28:17;10.50;;;9.50;;
5821;SDS011;2937;48.562;8.022;2023-06-10T21:33:10;9.47;;;8.47;;
5821;SDS011;2937;48.562;8.022;2023-06-10T21:38:04;10.37;;;8.97;;
5821;SDS011;2937;48.562;8.022;2023-06-10T21:42:56;9.70;;;8.70;;
5821;SDS011;2937;48.562;8.022;2023-06-10T21:47:49;10.70;;;9.30;;
5821;SDS011;2937;48.562;8.022;2023-06-10T21:52:42;10.00;;;9.00;;
5821;SDS011;2937;48.562;8.022;2023-06-10T21:57:36;9.07;;;8.17;;
5821;SDS011;2937;48.562;8.022;2023-06-10T22:02:29;9.67;;;8.67;;
5821;SDS011;2937;48.562;8.022;2023-06-10T22:07:21;9.27;;;8.20;;
5821;SDS011;2937;48.562;8.022;2023-06-10T22:12:15;9.37;;;8.37;;
5821;SDS011;2937;48.562;8.022;2023-06-10T22:17:09;10.73;;;7.70;;
5821;SDS011;2937;48.562;8.022;2023-06-10T22:22:03;10.03;;;8.87;;
5821;SDS011;2937;48.562;8.022;2023-06-10T22:26:55;9.77;;;8.80;;
5821;SDS011;2937;48.562;8.022;2023-06-10T22:31:48;13.00;;;8.47;;
5821;SDS011;2937;48.562;8.022;2023-06-10T22:36:42;8.60;;;7.80;;
5821;SDS011;2937;48.562;8.022;2023-06-10T22:41:35;9.67;;;8.67;;
5821;SDS011;2937;48.562;8.022;2023-06-10T22:46:28;11.53;;;8.70;;
5821;SDS011;2937;48.562;8.022;2023-06-10T22:51:20;8.90;;;8.00;;
5821;SDS011;2937;48.562;8.022;2023-06-10T22:56:15;9.27;;;8.07;;
5821;SDS011;2937;48.562;8.022;2023-06-10T23:01:08;9.30;;;8.40;;
5821;SDS011;2937;48.562;8.022;2023-06-10T23:06:00;11.70;;;8.70;;
5821;SDS011;2937;48.562;8.022;2023-06-10T23:10:53;10.70;;;8.30;;
5821;SDS011;2937;48.562;8.022;2023-06-10T23:15:47;9.77;;;7.80;;
5821;SDS011;2937;48.562;8.022;2023-06-10T23:20:40;8.67;;;7.20;;
5821;SDS011;2937;48.562;8.022;2023-06-10T23:25:33;8.30;;;7.50;;
5821;SDS011;2937;48.562;8.022;2023-06-10T23:30:26;8.23;;;7.43;;
5821;SDS011;2937;48.562;8.022;2023-06-10T23:35:20;8.50;;;7.60;;
5821;SDS011;2937;48.562;8.022;2023-06-10T23:40:13;9.10;;;7.53;;
5821;SDS011;2937;48.562;8.022;2023-06-10T23:45:06;8.47;;;7.30;;
5821;SDS011;2937;48.562;8.022;2023-06-10T23:50:00;8.00;;;7.20;;
5821;SDS011;2937;48.562;8.022;2023-06-10T23:54:54;8.63;;;7.70;;
5821;SDS011;2937;48.562;8.022;2023-06-10T23:59:48;7.20;;;6.50;;
